Forside
METAR-TAF:

METAR-TAF

Lufthavne :

Lowell, Idaho, USA

Breddekreds: 46-08-39N, længdekreds: 115-35-47W, højde: 480 m

Aktuelle vejr

Denne rapport blev lavet for 3 timer og 53 minutter siden, kl. 20:52 UTC
Vind 3 kt fra varierende retninger
Temperatur 4°C
Fugtighed 81%
Tryk 1020 hPa

METAR: KP69 232052Z AUTO VRB03KT 04/01 A3012 RMK AO1 SLP217 T00390011 58007 $

Tid: 16:45 (00:45 UTC)


TAF: fraværende

Vejrobservationer og prognoser fra mere end 4000 lufthavne (METAR og TAF).

De gule og røde prikker repræsenterer de meteorologiske stationer.

Flyt musen over at se navnet på stationen.

Så klik over at se vejr observationer og prognoser.

At skifte det kort: Klik på de grønne knapper med et sort kors for at zoome ind; på den grønne knap med en bindestreg for at zoome ud; eller på de grønne pile for tilstødende kort.


METAR-TAF: